sensor_id;sensor_type;location;lat;lon;timestamp;P1;durP1;ratioP1;P2;durP2;ratioP2
72105;SDS011;59975;47.646;18.318;2022-07-04T00:00:05;9.47;;;4.47;;
72105;SDS011;59975;47.646;18.318;2022-07-04T00:02:34;8.23;;;4.32;;
72105;SDS011;59975;47.646;18.318;2022-07-04T00:05:00;9.75;;;4.25;;
72105;SDS011;59975;47.646;18.318;2022-07-04T00:07:26;9.23;;;4.70;;
72105;SDS011;59975;47.646;18.318;2022-07-04T00:09:52;6.18;;;4.20;;
72105;SDS011;59975;47.646;18.318;2022-07-04T00:12:18;8.35;;;4.90;;
72105;SDS011;59975;47.646;18.318;2022-07-04T00:14:43;7.83;;;4.27;;
72105;SDS011;59975;47.646;18.318;2022-07-04T00:17:09;6.20;;;4.60;;
72105;SDS011;59975;47.646;18.318;2022-07-04T00:19:36;12.45;;;5.05;;
72105;SDS011;59975;47.646;18.318;2022-07-04T00:22:01;6.68;;;4.90;;
72105;SDS011;59975;47.646;18.318;2022-07-04T00:24:27;7.03;;;5.10;;
72105;SDS011;59975;47.646;18.318;2022-07-04T00:26:54;11.85;;;5.00;;
72105;SDS011;59975;47.646;18.318;2022-07-04T00:29:19;7.75;;;4.72;;
72105;SDS011;59975;47.646;18.318;2022-07-04T00:31:46;6.13;;;4.77;;
72105;SDS011;59975;47.646;18.318;2022-07-04T00:34:13;9.07;;;4.80;;
72105;SDS011;59975;47.646;18.318;2022-07-04T00:36:39;6.78;;;5.03;;
72105;SDS011;59975;47.646;18.318;2022-07-04T00:39:05;8.60;;;5.17;;
72105;SDS011;59975;47.646;18.318;2022-07-04T00:41:31;10.55;;;5.00;;
72105;SDS011;59975;47.646;18.318;2022-07-04T00:44:00;7.43;;;4.45;;
72105;SDS011;59975;47.646;18.318;2022-07-04T00:46:42;8.77;;;4.83;;
72105;SDS011;59975;47.646;18.318;2022-07-04T00:49:09;12.32;;;5.32;;
72105;SDS011;59975;47.646;18.318;2022-07-04T00:51:36;8.48;;;4.90;;
72105;SDS011;59975;47.646;18.318;2022-07-04T00:54:04;6.93;;;4.47;;
72105;SDS011;59975;47.646;18.318;2022-07-04T00:56:31;8.93;;;4.93;;
72105;SDS011;59975;47.646;18.318;2022-07-04T00:58:57;7.93;;;4.90;;
72105;SDS011;59975;47.646;18.318;2022-07-04T01:01:24;7.85;;;4.35;;
72105;SDS011;59975;47.646;18.318;2022-07-04T01:03:50;8.68;;;4.43;;
72105;SDS011;59975;47.646;18.318;2022-07-04T01:06:15;7.30;;;4.37;;
72105;SDS011;59975;47.646;18.318;2022-07-04T01:08:44;7.00;;;4.18;;
72105;SDS011;59975;47.646;18.318;2022-07-04T01:11:10;8.77;;;4.63;;
72105;SDS011;59975;47.646;18.318;2022-07-04T01:13:37;8.88;;;5.38;;
72105;SDS011;59975;47.646;18.318;2022-07-04T01:16:04;7.73;;;4.53;;
72105;SDS011;59975;47.646;18.318;2022-07-04T01:18:31;10.10;;;4.88;;
72105;SDS011;59975;47.646;18.318;2022-07-04T01:20:56;10.10;;;5.18;;
72105;SDS011;59975;47.646;18.318;2022-07-04T01:23:24;6.70;;;5.20;;
72105;SDS011;59975;47.646;18.318;2022-07-04T01:25:50;7.38;;;4.70;;
72105;SDS011;59975;47.646;18.318;2022-07-04T01:28:26;9.10;;;5.28;;
72105;SDS011;59975;47.646;18.318;2022-07-04T01:30:51;6.80;;;4.82;;
72105;SDS011;59975;47.646;18.318;2022-07-04T01:33:17;6.57;;;4.60;;
72105;SDS011;59975;47.646;18.318;2022-07-04T01:35:45;6.65;;;5.10;;
72105;SDS011;59975;47.646;18.318;2022-07-04T01:38:11;6.53;;;4.90;;
72105;SDS011;59975;47.646;18.318;2022-07-04T01:40:37;8.70;;;4.80;;
72105;SDS011;59975;47.646;18.318;2022-07-04T01:43:03;9.77;;;5.35;;
72105;SDS011;59975;47.646;18.318;2022-07-04T01:45:28;9.57;;;5.07;;
72105;SDS011;59975;47.646;18.318;2022-07-04T01:47:54;9.47;;;4.73;;
72105;SDS011;59975;47.646;18.318;2022-07-04T01:50:20;9.37;;;5.23;;
72105;SDS011;59975;47.646;18.318;2022-07-04T01:52:46;10.13;;;5.07;;
72105;SDS011;59975;47.646;18.318;2022-07-04T01:55:12;12.02;;;5.53;;
72105;SDS011;59975;47.646;18.318;2022-07-04T01:57:38;8.80;;;4.63;;
72105;SDS011;59975;47.646;18.318;2022-07-04T02:00:08;10.57;;;5.05;;
72105;SDS011;59975;47.646;18.318;2022-07-04T02:02:55;9.30;;;5.00;;
72105;SDS011;59975;47.646;18.318;2022-07-04T02:05:21;8.85;;;5.20;;
72105;SDS011;59975;47.646;18.318;2022-07-04T02:07:50;11.57;;;4.77;;
72105;SDS011;59975;47.646;18.318;2022-07-04T02:10:15;11.00;;;5.03;;
72105;SDS011;59975;47.646;18.318;2022-07-04T02:12:42;13.80;;;5.40;;
72105;SDS011;59975;47.646;18.318;2022-07-04T02:15:31;12.50;;;5.25;;
72105;SDS011;59975;47.646;18.318;2022-07-04T02:17:59;12.20;;;4.97;;
72105;SDS011;59975;47.646;18.318;2022-07-04T02:20:26;10.25;;;4.70;;
72105;SDS011;59975;47.646;18.318;2022-07-04T02:22:51;7.13;;;4.15;;
72105;SDS011;59975;47.646;18.318;2022-07-04T02:25:17;9.53;;;4.40;;
72105;SDS011;59975;47.646;18.318;2022-07-04T02:27:44;8.38;;;4.60;;
72105;SDS011;59975;47.646;18.318;2022-07-04T02:30:09;9.38;;;4.70;;
72105;SDS011;59975;47.646;18.318;2022-07-04T02:32:37;9.75;;;4.70;;
72105;SDS011;59975;47.646;18.318;2022-07-04T02:35:03;8.80;;;4.80;;
72105;SDS011;59975;47.646;18.318;2022-07-04T02:37:30;6.43;;;4.88;;
72105;SDS011;59975;47.646;18.318;2022-07-04T02:39:56;9.38;;;4.70;;
72105;SDS011;59975;47.646;18.318;2022-07-04T02:42:22;8.13;;;5.18;;
72105;SDS011;59975;47.646;18.318;2022-07-04T02:44:47;7.07;;;4.70;;
72105;SDS011;59975;47.646;18.318;2022-07-04T02:47:13;7.65;;;5.30;;
72105;SDS011;59975;47.646;18.318;2022-07-04T02:49:39;8.87;;;4.70;;
72105;SDS011;59975;47.646;18.318;2022-07-04T02:52:05;6.80;;;4.60;;
72105;SDS011;59975;47.646;18.318;2022-07-04T02:54:31;12.87;;;5.10;;
72105;SDS011;59975;47.646;18.318;2022-07-04T02:56:56;7.97;;;5.25;;
72105;SDS011;59975;47.646;18.318;2022-07-04T02:59:22;7.40;;;4.67;;
72105;SDS011;59975;47.646;18.318;2022-07-04T03:01:48;7.23;;;4.87;;
72105;SDS011;59975;47.646;18.318;2022-07-04T03:04:14;9.60;;;4.65;;
72105;SDS011;59975;47.646;18.318;2022-07-04T03:06:40;10.67;;;4.47;;
72105;SDS011;59975;47.646;18.318;2022-07-04T03:09:09;10.77;;;4.43;;
72105;SDS011;59975;47.646;18.318;2022-07-04T03:11:35;9.30;;;4.70;;
72105;SDS011;59975;47.646;18.318;2022-07-04T03:14:01;7.70;;;4.53;;
72105;SDS011;59975;47.646;18.318;2022-07-04T03:16:27;7.72;;;5.07;;
72105;SDS011;59975;47.646;18.318;2022-07-04T03:18:54;9.17;;;5.30;;
72105;SDS011;59975;47.646;18.318;2022-07-04T03:21:20;9.65;;;4.75;;
72105;SDS011;59975;47.646;18.318;2022-07-04T03:23:46;8.52;;;5.22;;
72105;SDS011;59975;47.646;18.318;2022-07-04T03:26:24;7.13;;;4.80;;
72105;SDS011;59975;47.646;18.318;2022-07-04T03:28:51;8.57;;;4.82;;
72105;SDS011;59975;47.646;18.318;2022-07-04T03:31:17;8.32;;;4.97;;
72105;SDS011;59975;47.646;18.318;2022-07-04T03:33:42;6.23;;;4.40;;
72105;SDS011;59975;47.646;18.318;2022-07-04T03:36:08;8.70;;;4.88;;
72105;SDS011;59975;47.646;18.318;2022-07-04T03:38:33;6.63;;;4.90;;
72105;SDS011;59975;47.646;18.318;2022-07-04T03:40:59;9.50;;;4.80;;
72105;SDS011;59975;47.646;18.318;2022-07-04T03:43:24;6.63;;;4.07;;
72105;SDS011;59975;47.646;18.318;2022-07-04T03:45:50;6.07;;;4.03;;
72105;SDS011;59975;47.646;18.318;2022-07-04T03:48:15;8.03;;;4.13;;
72105;SDS011;59975;47.646;18.318;2022-07-04T03:50:41;8.03;;;4.33;;
72105;SDS011;59975;47.646;18.318;2022-07-04T03:53:07;8.88;;;4.70;;
72105;SDS011;59975;47.646;18.318;2022-07-04T03:55:32;7.37;;;4.03;;
72105;SDS011;59975;47.646;18.318;2022-07-04T03:57:59;5.70;;;3.83;;
72105;SDS011;59975;47.646;18.318;2022-07-04T04:00:24;7.03;;;4.55;;
72105;SDS011;59975;47.646;18.318;2022-07-04T04:02:50;7.60;;;4.13;;
72105;SDS011;59975;47.646;18.318;2022-07-04T04:05:16;5.55;;;3.80;;
72105;SDS011;59975;47.646;18.318;2022-07-04T04:08:02;5.30;;;3.63;;
72105;SDS011;59975;47.646;18.318;2022-07-04T04:10:28;8.20;;;4.32;;
72105;SDS011;59975;47.646;18.318;2022-07-04T04:12:55;9.63;;;4.22;;
72105;SDS011;59975;47.646;18.318;2022-07-04T04:15:21;6.20;;;4.20;;
72105;SDS011;59975;47.646;18.318;2022-07-04T04:17:48;8.30;;;3.97;;
72105;SDS011;59975;47.646;18.318;2022-07-04T04:20:13;5.97;;;4.07;;
72105;SDS011;59975;47.646;18.318;2022-07-04T04:22:39;6.80;;;3.30;;
72105;SDS011;59975;47.646;18.318;2022-07-04T04:25:05;5.73;;;3.43;;
72105;SDS011;59975;47.646;18.318;2022-07-04T04:27:31;5.93;;;3.40;;
72105;SDS011;59975;47.646;18.318;2022-07-04T04:29:56;5.20;;;3.30;;
72105;SDS011;59975;47.646;18.318;2022-07-04T04:32:22;7.67;;;3.80;;
72105;SDS011;59975;47.646;18.318;2022-07-04T04:34:48;7.45;;;4.00;;
72105;SDS011;59975;47.646;18.318;2022-07-04T04:37:14;6.47;;;3.67;;
72105;SDS011;59975;47.646;18.318;2022-07-04T04:39:40;6.15;;;3.58;;
72105;SDS011;59975;47.646;18.318;2022-07-04T04:42:06;7.67;;;3.77;;
72105;SDS011;59975;47.646;18.318;2022-07-04T04:44:31;6.03;;;3.90;;
72105;SDS011;59975;47.646;18.318;2022-07-04T04:46:57;5.90;;;3.90;;
72105;SDS011;59975;47.646;18.318;2022-07-04T04:49:22;9.23;;;4.00;;
72105;SDS011;59975;47.646;18.318;2022-07-04T04:51:48;9.20;;;4.17;;
72105;SDS011;59975;47.646;18.318;2022-07-04T04:54:14;8.90;;;4.50;;
72105;SDS011;59975;47.646;18.318;2022-07-04T04:56:40;6.57;;;3.50;;
72105;SDS011;59975;47.646;18.318;2022-07-04T04:59:06;8.93;;;5.73;;
72105;SDS011;59975;47.646;18.318;2022-07-04T05:01:34;8.93;;;4.00;;
72105;SDS011;59975;47.646;18.318;2022-07-04T05:04:00;6.85;;;4.25;;
72105;SDS011;59975;47.646;18.318;2022-07-04T05:06:26;10.97;;;3.80;;
72105;SDS011;59975;47.646;18.318;2022-07-04T05:08:52;6.22;;;3.58;;
72105;SDS011;59975;47.646;18.318;2022-07-04T05:11:17;7.97;;;3.73;;
72105;SDS011;59975;47.646;18.318;2022-07-04T05:13:44;12.00;;;3.97;;
72105;SDS011;59975;47.646;18.318;2022-07-04T05:16:10;10.68;;;3.85;;
72105;SDS011;59975;47.646;18.318;2022-07-04T05:18:36;8.87;;;3.67;;
72105;SDS011;59975;47.646;18.318;2022-07-04T05:21:01;7.40;;;3.57;;
72105;SDS011;59975;47.646;18.318;2022-07-04T05:23:27;6.20;;;3.47;;
72105;SDS011;59975;47.646;18.318;2022-07-04T05:25:53;6.57;;;3.70;;
72105;SDS011;59975;47.646;18.318;2022-07-04T05:28:18;7.00;;;3.65;;
72105;SDS011;59975;47.646;18.318;2022-07-04T05:30:44;5.87;;;3.67;;
72105;SDS011;59975;47.646;18.318;2022-07-04T05:33:09;10.30;;;4.10;;
72105;SDS011;59975;47.646;18.318;2022-07-04T05:35:35;12.17;;;4.10;;
72105;SDS011;59975;47.646;18.318;2022-07-04T05:38:01;7.65;;;3.70;;
72105;SDS011;59975;47.646;18.318;2022-07-04T05:40:26;7.67;;;4.30;;
72105;SDS011;59975;47.646;18.318;2022-07-04T05:42:52;6.50;;;3.83;;
72105;SDS011;59975;47.646;18.318;2022-07-04T05:45:17;8.03;;;3.80;;
72105;SDS011;59975;47.646;18.318;2022-07-04T05:47:43;6.03;;;4.23;;
72105;SDS011;59975;47.646;18.318;2022-07-04T05:50:10;5.78;;;4.10;;
72105;SDS011;59975;47.646;18.318;2022-07-04T05:52:36;9.30;;;4.18;;
72105;SDS011;59975;47.646;18.318;2022-07-04T05:55:02;8.23;;;3.92;;
72105;SDS011;59975;47.646;18.318;2022-07-04T06:00:50;7.93;;;4.25;;
72105;SDS011;59975;47.646;18.318;2022-07-04T06:03:15;7.00;;;3.90;;
72105;SDS011;59975;47.646;18.318;2022-07-04T06:05:41;8.10;;;4.20;;
72105;SDS011;59975;47.646;18.318;2022-07-04T06:08:07;6.82;;;3.78;;
72105;SDS011;59975;47.646;18.318;2022-07-04T06:10:32;4.97;;;3.87;;
72105;SDS011;59975;47.646;18.318;2022-07-04T06:12:58;9.70;;;3.83;;
72105;SDS011;59975;47.646;18.318;2022-07-04T06:15:24;8.60;;;4.17;;
72105;SDS011;59975;47.646;18.318;2022-07-04T06:17:50;9.52;;;4.45;;
72105;SDS011;59975;47.646;18.318;2022-07-04T06:20:16;8.33;;;4.33;;
72105;SDS011;59975;47.646;18.318;2022-07-04T06:22:43;6.47;;;3.90;;
72105;SDS011;59975;47.646;18.318;2022-07-04T06:25:14;8.60;;;3.97;;
72105;SDS011;59975;47.646;18.318;2022-07-04T06:27:41;5.77;;;3.57;;
72105;SDS011;59975;47.646;18.318;2022-07-04T06:30:07;6.65;;;4.15;;
72105;SDS011;59975;47.646;18.318;2022-07-04T06:32:55;7.82;;;3.75;;
72105;SDS011;59975;47.646;18.318;2022-07-04T06:35:23;7.75;;;3.80;;
72105;SDS011;59975;47.646;18.318;2022-07-04T06:38:12;6.60;;;3.85;;
72105;SDS011;59975;47.646;18.318;2022-07-04T06:40:40;5.37;;;3.20;;
72105;SDS011;59975;47.646;18.318;2022-07-04T06:43:07;5.80;;;3.50;;
72105;SDS011;59975;47.646;18.318;2022-07-04T06:45:34;4.60;;;3.97;;
72105;SDS011;59975;47.646;18.318;2022-07-04T06:48:00;6.13;;;3.50;;
72105;SDS011;59975;47.646;18.318;2022-07-04T06:50:26;6.75;;;3.15;;
72105;SDS011;59975;47.646;18.318;2022-07-04T06:52:51;7.77;;;3.93;;
72105;SDS011;59975;47.646;18.318;2022-07-04T06:55:17;5.83;;;3.90;;
72105;SDS011;59975;47.646;18.318;2022-07-04T06:57:43;5.25;;;3.88;;
72105;SDS011;59975;47.646;18.318;2022-07-04T07:00:08;13.33;;;3.70;;
72105;SDS011;59975;47.646;18.318;2022-07-04T07:02:35;6.38;;;3.75;;
72105;SDS011;59975;47.646;18.318;2022-07-04T07:05:02;5.55;;;3.00;;
72105;SDS011;59975;47.646;18.318;2022-07-04T07:07:28;8.68;;;3.30;;
72105;SDS011;59975;47.646;18.318;2022-07-04T07:09:55;4.73;;;2.90;;
72105;SDS011;59975;47.646;18.318;2022-07-04T07:12:21;4.70;;;3.13;;
72105;SDS011;59975;47.646;18.318;2022-07-04T07:14:48;9.43;;;3.65;;
72105;SDS011;59975;47.646;18.318;2022-07-04T07:17:14;5.13;;;3.30;;
72105;SDS011;59975;47.646;18.318;2022-07-04T07:19:41;5.25;;;3.55;;
72105;SDS011;59975;47.646;18.318;2022-07-04T07:22:08;5.50;;;3.60;;
72105;SDS011;59975;47.646;18.318;2022-07-04T07:24:34;7.43;;;3.50;;
72105;SDS011;59975;47.646;18.318;2022-07-04T07:27:01;6.28;;;2.88;;
72105;SDS011;59975;47.646;18.318;2022-07-04T07:29:27;7.25;;;3.50;;
72105;SDS011;59975;47.646;18.318;2022-07-04T07:31:56;6.45;;;3.35;;
72105;SDS011;59975;47.646;18.318;2022-07-04T07:34:21;9.13;;;3.20;;
72105;SDS011;59975;47.646;18.318;2022-07-04T07:36:46;6.65;;;3.45;;
72105;SDS011;59975;47.646;18.318;2022-07-04T07:39:12;5.67;;;2.93;;
72105;SDS011;59975;47.646;18.318;2022-07-04T07:41:38;5.33;;;2.90;;
72105;SDS011;59975;47.646;18.318;2022-07-04T07:44:05;3.90;;;2.97;;
72105;SDS011;59975;47.646;18.318;2022-07-04T07:46:32;5.93;;;2.95;;
72105;SDS011;59975;47.646;18.318;2022-07-04T07:52:19;5.83;;;2.60;;
72105;SDS011;59975;47.646;18.318;2022-07-04T07:54:46;5.50;;;3.00;;
72105;SDS011;59975;47.646;18.318;2022-07-04T08:03:57;4.72;;;2.20;;
72105;SDS011;59975;47.646;18.318;2022-07-04T08:06:42;5.53;;;2.72;;
72105;SDS011;59975;47.646;18.318;2022-07-04T08:09:08;6.80;;;2.40;;
72105;SDS011;59975;47.646;18.318;2022-07-04T08:11:36;7.03;;;2.85;;
72105;SDS011;59975;47.646;18.318;2022-07-04T08:14:01;3.70;;;2.45;;
72105;SDS011;59975;47.646;18.318;2022-07-04T08:16:27;7.40;;;2.83;;
72105;SDS011;59975;47.646;18.318;2022-07-04T08:18:52;8.43;;;3.28;;
72105;SDS011;59975;47.646;18.318;2022-07-04T08:21:17;4.13;;;2.53;;
72105;SDS011;59975;47.646;18.318;2022-07-04T08:23:44;5.30;;;2.63;;
72105;SDS011;59975;47.646;18.318;2022-07-04T08:26:10;5.13;;;2.58;;
72105;SDS011;59975;47.646;18.318;2022-07-04T08:28:36;5.50;;;2.60;;
72105;SDS011;59975;47.646;18.318;2022-07-04T08:31:01;4.67;;;2.40;;
72105;SDS011;59975;47.646;18.318;2022-07-04T08:33:28;4.73;;;2.80;;
72105;SDS011;59975;47.646;18.318;2022-07-04T08:35:54;6.22;;;3.15;;
72105;SDS011;59975;47.646;18.318;2022-07-04T08:45:04;4.55;;;2.58;;
72105;SDS011;59975;47.646;18.318;2022-07-04T08:50:54;4.25;;;2.15;;
72105;SDS011;59975;47.646;18.318;2022-07-04T08:53:26;4.68;;;2.28;;
72105;SDS011;59975;47.646;18.318;2022-07-04T08:55:54;4.82;;;2.88;;
72105;SDS011;59975;47.646;18.318;2022-07-04T08:58:42;3.92;;;2.22;;
72105;SDS011;59975;47.646;18.318;2022-07-04T09:07:51;5.22;;;2.63;;
72105;SDS011;59975;47.646;18.318;2022-07-04T09:13:41;4.13;;;2.40;;
72105;SDS011;59975;47.646;18.318;2022-07-04T09:22:52;4.03;;;1.93;;
72105;SDS011;59975;47.646;18.318;2022-07-04T09:25:21;3.33;;;1.92;;
72105;SDS011;59975;47.646;18.318;2022-07-04T09:31:17;2.60;;;1.92;;
72105;SDS011;59975;47.646;18.318;2022-07-04T09:43:59;4.75;;;1.83;;
72105;SDS011;59975;47.646;18.318;2022-07-04T09:50:00;3.55;;;1.90;;
72105;SDS011;59975;47.646;18.318;2022-07-04T09:52:28;3.50;;;1.50;;
72105;SDS011;59975;47.646;18.318;2022-07-04T09:54:56;1.90;;;1.30;;
72105;SDS011;59975;47.646;18.318;2022-07-04T10:10:50;3.47;;;1.40;;
72105;SDS011;59975;47.646;18.318;2022-07-04T10:13:15;4.57;;;1.83;;
72105;SDS011;59975;47.646;18.318;2022-07-04T10:19:03;3.22;;;1.73;;
72105;SDS011;59975;47.646;18.318;2022-07-04T10:21:30;3.67;;;1.85;;
72105;SDS011;59975;47.646;18.318;2022-07-04T10:23:57;2.63;;;1.98;;
72105;SDS011;59975;47.646;18.318;2022-07-04T10:29:45;2.45;;;1.70;;
72105;SDS011;59975;47.646;18.318;2022-07-04T10:35:55;2.73;;;1.40;;
72105;SDS011;59975;47.646;18.318;2022-07-04T11:33:22;4.93;;;2.10;;
72105;SDS011;59975;47.646;18.318;2022-07-04T12:48:55;3.38;;;1.83;;
72105;SDS011;59975;47.646;18.318;2022-07-04T12:51:26;4.28;;;2.20;;
72105;SDS011;59975;47.646;18.318;2022-07-04T12:53:54;6.67;;;1.83;;
72105;SDS011;59975;47.646;18.318;2022-07-04T12:56:43;4.43;;;1.70;;
72105;SDS011;59975;47.646;18.318;2022-07-04T12:59:09;2.80;;;1.92;;
72105;SDS011;59975;47.646;18.318;2022-07-04T13:01:35;3.05;;;2.00;;
72105;SDS011;59975;47.646;18.318;2022-07-04T13:04:02;3.15;;;1.85;;
72105;SDS011;59975;47.646;18.318;2022-07-04T13:06:29;2.30;;;1.90;;
72105;SDS011;59975;47.646;18.318;2022-07-04T13:12:18;3.80;;;1.90;;
72105;SDS011;59975;47.646;18.318;2022-07-04T13:14:54;5.72;;;1.80;;
72105;SDS011;59975;47.646;18.318;2022-07-04T13:17:22;3.78;;;1.88;;
72105;SDS011;59975;47.646;18.318;2022-07-04T13:23:12;2.50;;;1.50;;
72105;SDS011;59975;47.646;18.318;2022-07-04T13:25:38;3.05;;;1.70;;
72105;SDS011;59975;47.646;18.318;2022-07-04T13:28:03;3.83;;;1.70;;
72105;SDS011;59975;47.646;18.318;2022-07-04T13:30:31;3.73;;;1.70;;
72105;SDS011;59975;47.646;18.318;2022-07-04T13:32:56;2.88;;;1.80;;
72105;SDS011;59975;47.646;18.318;2022-07-04T13:38:43;2.42;;;1.52;;
72105;SDS011;59975;47.646;18.318;2022-07-04T13:41:08;2.87;;;1.63;;
72105;SDS011;59975;47.646;18.318;2022-07-04T13:46:56;2.87;;;1.93;;
72105;SDS011;59975;47.646;18.318;2022-07-04T13:49:23;3.60;;;1.70;;
72105;SDS011;59975;47.646;18.318;2022-07-04T13:51:48;9.10;;;2.20;;
72105;SDS011;59975;47.646;18.318;2022-07-04T13:54:16;5.97;;;2.07;;
72105;SDS011;59975;47.646;18.318;2022-07-04T14:00:06;8.17;;;2.47;;
72105;SDS011;59975;47.646;18.318;2022-07-04T14:02:33;3.83;;;2.30;;
72105;SDS011;59975;47.646;18.318;2022-07-04T14:04:59;6.80;;;2.47;;
72105;SDS011;59975;47.646;18.318;2022-07-04T14:07:24;11.52;;;2.38;;
72105;SDS011;59975;47.646;18.318;2022-07-04T14:09:50;5.70;;;2.40;;
72105;SDS011;59975;47.646;18.318;2022-07-04T14:15:40;8.95;;;2.80;;
72105;SDS011;59975;47.646;18.318;2022-07-04T14:18:05;6.55;;;2.38;;
72105;SDS011;59975;47.646;18.318;2022-07-04T14:20:37;5.38;;;2.20;;
72105;SDS011;59975;47.646;18.318;2022-07-04T14:23:02;4.78;;;2.58;;
72105;SDS011;59975;47.646;18.318;2022-07-04T14:25:29;8.60;;;2.40;;
72105;SDS011;59975;47.646;18.318;2022-07-04T14:27:56;6.90;;;2.50;;
72105;SDS011;59975;47.646;18.318;2022-07-04T14:30:22;3.70;;;2.10;;
72105;SDS011;59975;47.646;18.318;2022-07-04T14:32:48;3.00;;;2.05;;
72105;SDS011;59975;47.646;18.318;2022-07-04T14:35:14;9.52;;;2.70;;
72105;SDS011;59975;47.646;18.318;2022-07-04T14:37:41;7.33;;;2.53;;
72105;SDS011;59975;47.646;18.318;2022-07-04T14:40:07;5.18;;;2.60;;
72105;SDS011;59975;47.646;18.318;2022-07-04T14:42:33;4.97;;;2.78;;
72105;SDS011;59975;47.646;18.318;2022-07-04T14:44:59;5.82;;;2.70;;
72105;SDS011;59975;47.646;18.318;2022-07-04T14:50:47;13.88;;;3.22;;
72105;SDS011;59975;47.646;18.318;2022-07-04T14:53:13;6.75;;;2.50;;
72105;SDS011;59975;47.646;18.318;2022-07-04T14:55:40;6.60;;;1.90;;
72105;SDS011;59975;47.646;18.318;2022-07-04T14:58:06;4.93;;;2.50;;
72105;SDS011;59975;47.646;18.318;2022-07-04T15:00:32;5.47;;;2.30;;
72105;SDS011;59975;47.646;18.318;2022-07-04T15:02:58;5.75;;;2.42;;
72105;SDS011;59975;47.646;18.318;2022-07-04T15:05:25;4.82;;;2.70;;
72105;SDS011;59975;47.646;18.318;2022-07-04T15:07:52;3.97;;;2.13;;
72105;SDS011;59975;47.646;18.318;2022-07-04T15:10:21;7.85;;;2.15;;
72105;SDS011;59975;47.646;18.318;2022-07-04T15:12:47;11.40;;;2.17;;
72105;SDS011;59975;47.646;18.318;2022-07-04T15:15:13;7.27;;;2.03;;
72105;SDS011;59975;47.646;18.318;2022-07-04T15:17:39;8.75;;;2.50;;
72105;SDS011;59975;47.646;18.318;2022-07-04T15:20:05;5.63;;;2.38;;
72105;SDS011;59975;47.646;18.318;2022-07-04T15:26:14;3.33;;;2.20;;
72105;SDS011;59975;47.646;18.318;2022-07-04T15:28:40;3.10;;;1.90;;
72105;SDS011;59975;47.646;18.318;2022-07-04T15:34:27;6.90;;;2.20;;
72105;SDS011;59975;47.646;18.318;2022-07-04T15:36:53;5.47;;;2.13;;
72105;SDS011;59975;47.646;18.318;2022-07-04T15:39:20;6.87;;;1.80;;
72105;SDS011;59975;47.646;18.318;2022-07-04T15:41:46;10.75;;;2.20;;
72105;SDS011;59975;47.646;18.318;2022-07-04T15:47:34;3.65;;;1.92;;
72105;SDS011;59975;47.646;18.318;2022-07-04T15:50:00;3.80;;;1.70;;
72105;SDS011;59975;47.646;18.318;2022-07-04T15:52:26;6.28;;;1.75;;
72105;SDS011;59975;47.646;18.318;2022-07-04T15:54:53;3.55;;;2.05;;
72105;SDS011;59975;47.646;18.318;2022-07-04T15:57:19;8.88;;;1.98;;
72105;SDS011;59975;47.646;18.318;2022-07-04T15:59:45;12.90;;;2.80;;
72105;SDS011;59975;47.646;18.318;2022-07-04T16:02:10;8.73;;;1.60;;
72105;SDS011;59975;47.646;18.318;2022-07-04T16:04:37;9.23;;;2.60;;
72105;SDS011;59975;47.646;18.318;2022-07-04T16:07:02;8.32;;;1.92;;
72105;SDS011;59975;47.646;18.318;2022-07-04T16:09:29;7.60;;;1.95;;
72105;SDS011;59975;47.646;18.318;2022-07-04T16:11:55;9.33;;;1.80;;
72105;SDS011;59975;47.646;18.318;2022-07-04T16:14:22;5.85;;;1.67;;
72105;SDS011;59975;47.646;18.318;2022-07-04T16:16:48;6.65;;;1.67;;
72105;SDS011;59975;47.646;18.318;2022-07-04T16:19:15;6.13;;;1.80;;
72105;SDS011;59975;47.646;18.318;2022-07-04T16:21:41;4.88;;;1.90;;
72105;SDS011;59975;47.646;18.318;2022-07-04T16:24:07;4.97;;;1.40;;
72105;SDS011;59975;47.646;18.318;2022-07-04T16:26:34;4.60;;;1.40;;
72105;SDS011;59975;47.646;18.318;2022-07-04T16:29:00;4.30;;;2.40;;
72105;SDS011;59975;47.646;18.318;2022-07-04T16:31:26;6.43;;;1.50;;
72105;SDS011;59975;47.646;18.318;2022-07-04T16:33:52;3.05;;;1.83;;
72105;SDS011;59975;47.646;18.318;2022-07-04T16:36:18;6.07;;;1.90;;
72105;SDS011;59975;47.646;18.318;2022-07-04T16:38:44;7.22;;;1.95;;
72105;SDS011;59975;47.646;18.318;2022-07-04T16:41:10;6.03;;;1.90;;
72105;SDS011;59975;47.646;18.318;2022-07-04T16:43:37;6.80;;;2.87;;
72105;SDS011;59975;47.646;18.318;2022-07-04T16:46:02;5.25;;;1.60;;
72105;SDS011;59975;47.646;18.318;2022-07-04T16:48:28;5.90;;;1.75;;
72105;SDS011;59975;47.646;18.318;2022-07-04T16:50:54;6.00;;;1.80;;
72105;SDS011;59975;47.646;18.318;2022-07-04T16:53:19;3.00;;;1.90;;
72105;SDS011;59975;47.646;18.318;2022-07-04T16:55:46;4.87;;;1.80;;
72105;SDS011;59975;47.646;18.318;2022-07-04T16:58:13;4.88;;;1.42;;
72105;SDS011;59975;47.646;18.318;2022-07-04T17:00:39;6.00;;;1.90;;
72105;SDS011;59975;47.646;18.318;2022-07-04T17:03:05;3.67;;;1.90;;
72105;SDS011;59975;47.646;18.318;2022-07-04T17:05:32;5.67;;;1.77;;
72105;SDS011;59975;47.646;18.318;2022-07-04T17:07:58;5.07;;;2.10;;
72105;SDS011;59975;47.646;18.318;2022-07-04T17:10:24;4.85;;;1.50;;
72105;SDS011;59975;47.646;18.318;2022-07-04T17:12:50;7.03;;;1.83;;
72105;SDS011;59975;47.646;18.318;2022-07-04T17:15:17;6.65;;;2.13;;
72105;SDS011;59975;47.646;18.318;2022-07-04T17:17:44;4.30;;;1.77;;
72105;SDS011;59975;47.646;18.318;2022-07-04T17:20:11;8.52;;;2.10;;
72105;SDS011;59975;47.646;18.318;2022-07-04T17:22:36;8.45;;;2.10;;
72105;SDS011;59975;47.646;18.318;2022-07-04T17:25:02;6.73;;;2.03;;
72105;SDS011;59975;47.646;18.318;2022-07-04T17:27:28;3.90;;;1.85;;
72105;SDS011;59975;47.646;18.318;2022-07-04T17:29:54;6.87;;;1.97;;
72105;SDS011;59975;47.646;18.318;2022-07-04T17:35:42;4.45;;;1.80;;
72105;SDS011;59975;47.646;18.318;2022-07-04T17:38:08;9.07;;;2.37;;
72105;SDS011;59975;47.646;18.318;2022-07-04T17:40:34;6.10;;;1.90;;
72105;SDS011;59975;47.646;18.318;2022-07-04T17:43:02;7.00;;;1.98;;
72105;SDS011;59975;47.646;18.318;2022-07-04T17:45:29;7.10;;;1.95;;
72105;SDS011;59975;47.646;18.318;2022-07-04T17:47:56;8.70;;;2.10;;
72105;SDS011;59975;47.646;18.318;2022-07-04T17:50:22;4.15;;;2.00;;
72105;SDS011;59975;47.646;18.318;2022-07-04T17:52:48;5.33;;;1.93;;
72105;SDS011;59975;47.646;18.318;2022-07-04T17:55:14;6.55;;;2.10;;
72105;SDS011;59975;47.646;18.318;2022-07-04T17:57:40;7.53;;;2.03;;
72105;SDS011;59975;47.646;18.318;2022-07-04T18:00:07;4.80;;;1.95;;
72105;SDS011;59975;47.646;18.318;2022-07-04T18:02:33;5.63;;;1.80;;
72105;SDS011;59975;47.646;18.318;2022-07-04T18:04:59;5.93;;;1.80;;
72105;SDS011;59975;47.646;18.318;2022-07-04T18:07:25;5.73;;;2.03;;
72105;SDS011;59975;47.646;18.318;2022-07-04T18:09:51;7.63;;;2.17;;
72105;SDS011;59975;47.646;18.318;2022-07-04T18:12:18;7.30;;;1.90;;
72105;SDS011;59975;47.646;18.318;2022-07-04T18:14:44;5.60;;;1.90;;
72105;SDS011;59975;47.646;18.318;2022-07-04T18:20:32;6.07;;;2.57;;
72105;SDS011;59975;47.646;18.318;2022-07-04T18:22:59;7.63;;;1.65;;
72105;SDS011;59975;47.646;18.318;2022-07-04T18:28:47;8.80;;;1.80;;
72105;SDS011;59975;47.646;18.318;2022-07-04T18:31:13;5.35;;;1.80;;
72105;SDS011;59975;47.646;18.318;2022-07-04T18:33:40;10.27;;;2.27;;
72105;SDS011;59975;47.646;18.318;2022-07-04T18:39:29;6.70;;;1.85;;
72105;SDS011;59975;47.646;18.318;2022-07-04T18:41:54;6.57;;;1.80;;
72105;SDS011;59975;47.646;18.318;2022-07-04T18:44:40;5.78;;;2.20;;
72105;SDS011;59975;47.646;18.318;2022-07-04T18:50:28;6.43;;;1.58;;